createdAt,value
2019-02-07T00:00:43.081Z,12.53
2019-02-07T00:03:11.881Z,12.07
2019-02-07T00:05:40.689Z,13.63
2019-02-07T00:08:09.488Z,14.20
2019-02-07T00:10:39.014Z,14.03
2019-02-07T00:13:07.825Z,14.63
2019-02-07T00:15:36.772Z,13.30
2019-02-07T00:18:05.841Z,14.73
2019-02-07T00:20:34.781Z,14.47
2019-02-07T00:23:03.762Z,14.73
2019-02-07T00:25:32.951Z,14.70
2019-02-07T00:28:01.772Z,14.50
2019-02-07T00:30:30.560Z,15.27
2019-02-07T00:32:59.375Z,14.83
2019-02-07T00:35:28.080Z,15.53
2019-02-07T00:37:56.901Z,15.00
2019-02-07T00:40:26.810Z,15.23
2019-02-07T00:42:55.514Z,15.10
2019-02-07T00:45:24.258Z,14.27
2019-02-07T00:47:53.041Z,14.70
2019-02-07T00:50:21.859Z,14.47
2019-02-07T00:52:50.646Z,15.57
2019-02-07T00:55:19.605Z,15.53
2019-02-07T00:57:48.707Z,14.40
2019-02-07T01:00:18.988Z,14.73
2019-02-07T01:02:47.799Z,13.70
2019-02-07T01:05:16.775Z,15.33
2019-02-07T01:07:45.580Z,14.23
2019-02-07T01:10:16.180Z,14.13
2019-02-07T01:12:44.979Z,14.87
2019-02-07T01:15:14.716Z,14.23
2019-02-07T01:17:43.506Z,14.53
2019-02-07T01:20:13.125Z,13.90
2019-02-07T01:22:41.907Z,13.67
2019-02-07T01:25:12.228Z,13.13
2019-02-07T01:27:41.120Z,14.27
2019-02-07T01:30:10.935Z,13.43
2019-02-07T01:32:39.682Z,14.83
2019-02-07T01:35:08.741Z,12.03
2019-02-07T01:37:37.558Z,13.27
2019-02-07T01:40:07.692Z,12.80
2019-02-07T01:42:36.497Z,13.83
2019-02-07T01:45:12.770Z,13.93
2019-02-07T01:47:36.621Z,13.80
2019-02-07T01:50:05.893Z,13.37
2019-02-07T01:52:34.717Z,14.30
2019-02-07T01:55:03.977Z,13.77
2019-02-07T01:57:32.762Z,14.23
2019-02-07T02:00:01.567Z,15.53
2019-02-07T02:02:30.372Z,14.03
2019-02-07T02:04:59.175Z,12.87
2019-02-07T02:07:27.999Z,13.40
2019-02-07T02:09:56.719Z,12.80
2019-02-07T02:12:25.710Z,13.20
2019-02-07T02:14:54.516Z,14.00
2019-02-07T02:17:23.339Z,14.37
2019-02-07T02:19:52.149Z,14.07
2019-02-07T02:22:20.943Z,14.37
2019-02-07T02:24:49.730Z,13.47
2019-02-07T02:27:18.869Z,13.00
2019-02-07T02:29:47.650Z,12.70
2019-02-07T02:32:16.536Z,13.00
2019-02-07T02:34:45.365Z,13.47
2019-02-07T02:37:14.150Z,12.67
2019-02-07T02:39:42.954Z,13.50
2019-02-07T02:42:11.738Z,12.40
2019-02-07T02:44:40.539Z,12.40
2019-02-07T02:47:10.902Z,12.93
2019-02-07T02:49:39.703Z,13.00
2019-02-07T02:52:08.521Z,12.37
2019-02-07T02:54:43.956Z,10.03
2019-02-07T02:57:13.060Z,12.53
2019-02-07T02:59:41.858Z,13.33
2019-02-07T03:02:28.489Z,13.27
2019-02-07T03:05:15.027Z,12.87
2019-02-07T03:08:08.893Z,13.80
2019-02-07T03:10:59.928Z,12.53
2019-02-07T03:13:41.720Z,13.10
2019-02-07T03:16:21.226Z,12.87
2019-02-07T03:19:21.193Z,12.00
2019-02-07T03:21:59.918Z,12.03
2019-02-07T03:25:02.588Z,11.73
2019-02-07T03:27:49.025Z,12.63
2019-02-07T03:30:39.301Z,13.17
2019-02-07T03:33:30.304Z,13.13
2019-02-07T03:36:09.854Z,12.23
2019-02-07T03:38:57.601Z,11.73
2019-02-07T03:41:51.734Z,11.60
2019-02-07T03:44:39.581Z,13.30
2019-02-07T03:47:33.619Z,12.03
2019-02-07T03:50:24.566Z,12.93
2019-02-07T03:53:11.051Z,12.23
2019-02-07T03:55:48.680Z,13.47
2019-02-07T03:58:44.802Z,11.93
2019-02-07T04:01:31.425Z,11.87
2019-02-07T04:04:09.098Z,13.60
2019-02-07T04:07:03.542Z,12.00
2019-02-07T04:09:50.386Z,13.03
2019-02-07T04:12:39.685Z,12.20
2019-02-07T04:15:33.191Z,11.60
2019-02-07T04:18:33.300Z,10.73
2019-02-07T04:21:17.217Z,11.63
2019-02-07T04:24:11.239Z,11.93
2019-02-07T04:27:08.655Z,11.40
2019-02-07T04:30:02.547Z,12.40
2019-02-07T04:32:49.161Z,10.80
2019-02-07T04:35:55.245Z,11.03
2019-02-07T04:38:46.147Z,10.80
2019-02-07T04:41:22.766Z,10.80
2019-02-07T04:44:10.090Z,11.37
2019-02-07T04:46:57.421Z,9.20
2019-02-07T04:50:00.641Z,10.23
2019-02-07T04:52:47.427Z,10.10
2019-02-07T04:55:34.164Z,10.57
2019-02-07T04:58:28.421Z,9.63
2019-02-07T05:01:19.124Z,10.03
2019-02-07T05:04:19.178Z,11.30
2019-02-07T05:07:06.006Z,10.17
2019-02-07T05:09:59.876Z,11.03
2019-02-07T05:12:56.920Z,9.70
2019-02-07T05:15:54.008Z,9.93
2019-02-07T05:19:00.244Z,9.77
2019-02-07T05:21:51.489Z,10.37
2019-02-07T05:24:54.431Z,10.13
2019-02-07T05:27:44.936Z,9.67
2019-02-07T05:30:38.773Z,9.50
2019-02-07T05:33:38.922Z,9.30
2019-02-07T05:36:38.728Z,10.43
2019-02-07T05:39:39.862Z,8.43
2019-02-07T05:42:30.439Z,8.77
2019-02-07T05:45:27.185Z,8.83
2019-02-07T05:48:04.011Z,8.00
2019-02-07T05:50:50.986Z,10.13
2019-02-07T05:53:53.899Z,9.57
2019-02-07T05:56:30.975Z,9.93
2019-02-07T05:59:19.908Z,9.37
2019-02-07T06:02:14.043Z,10.00
2019-02-07T06:05:00.190Z,8.87
2019-02-07T06:07:46.703Z,8.73
2019-02-07T06:10:40.681Z,10.27
2019-02-07T06:13:28.351Z,9.53
2019-02-07T06:16:21.761Z,9.43
2019-02-07T06:19:00.178Z,8.07
2019-02-07T06:21:41.657Z,8.90
2019-02-07T06:24:27.670Z,8.93
2019-02-07T06:27:06.464Z,8.43
2019-02-07T06:29:50.767Z,8.23
2019-02-07T06:32:29.752Z,7.90
2019-02-07T06:35:29.665Z,7.50
2019-02-07T06:38:20.656Z,8.07
2019-02-07T06:41:17.574Z,8.20
2019-02-07T06:44:11.244Z,8.13
2019-02-07T06:46:49.851Z,8.70
2019-02-07T06:49:43.795Z,8.70
2019-02-07T06:52:40.537Z,7.23
2019-02-07T06:55:30.537Z,8.10
2019-02-07T06:58:30.741Z,8.20
2019-02-07T07:01:30.815Z,8.67
2019-02-07T07:04:14.015Z,7.10
2019-02-07T07:07:07.978Z,7.13
2019-02-07T07:10:01.644Z,7.50
2019-02-07T07:13:09.914Z,7.83
2019-02-07T07:15:57.760Z,6.77
2019-02-07T07:18:49.414Z,6.53
2019-02-07T07:21:37.268Z,7.77
2019-02-07T07:24:34.507Z,8.40
2019-02-07T07:27:09.713Z,7.33
2019-02-07T07:29:51.277Z,7.07
2019-02-07T07:32:33.036Z,8.13
2019-02-07T07:35:16.344Z,7.83
2019-02-07T07:38:13.339Z,7.57
2019-02-07T07:40:59.679Z,7.33
2019-02-07T07:43:35.874Z,7.53
2019-02-07T07:46:18.989Z,7.83
2019-02-07T07:49:05.841Z,7.53
2019-02-07T07:51:52.576Z,7.20
2019-02-07T07:54:38.005Z,7.23
2019-02-07T07:57:28.951Z,6.53
2019-02-07T08:00:18.978Z,7.47
2019-02-07T08:03:00.155Z,7.30
2019-02-07T08:05:45.710Z,5.20
2019-02-07T08:08:42.661Z,7.57
2019-02-07T08:11:30.503Z,7.43
2019-02-07T08:14:17.244Z,7.50
2019-02-07T08:17:11.066Z,7.90
2019-02-07T08:20:02.110Z,6.83
2019-02-07T08:22:33.110Z,6.23
2019-02-07T08:25:19.901Z,7.53
2019-02-07T08:28:06.387Z,7.73
2019-02-07T08:30:54.266Z,8.53
2019-02-07T08:33:43.720Z,7.87
2019-02-07T08:36:46.679Z,7.20
2019-02-07T08:39:49.663Z,7.90
2019-02-07T08:42:32.400Z,7.93
2019-02-07T08:45:38.411Z,7.40
2019-02-07T08:48:32.111Z,7.30
2019-02-07T08:51:23.111Z,6.63
2019-02-07T08:54:23.635Z,6.60
2019-02-07T08:57:10.456Z,6.67
2019-02-07T08:59:57.272Z,6.93
2019-02-07T09:02:51.614Z,7.63
2019-02-07T09:05:29.760Z,7.50
2019-02-07T09:08:26.519Z,8.67
2019-02-07T09:11:09.131Z,8.30
2019-02-07T09:13:57.197Z,6.07
2019-02-07T09:16:45.517Z,7.87
2019-02-07T09:19:33.748Z,6.93
2019-02-07T09:22:29.178Z,7.13
2019-02-07T09:25:17.008Z,7.93
2019-02-07T09:27:56.655Z,7.67
2019-02-07T09:30:50.984Z,6.87
2019-02-07T09:33:38.839Z,6.97
2019-02-07T09:36:25.351Z,6.40
2019-02-07T09:39:22.114Z,5.97
2019-02-07T09:42:08.653Z,7.33
2019-02-07T09:44:52.449Z,7.57
2019-02-07T09:47:46.560Z,7.87
2019-02-07T09:50:32.113Z,6.83
2019-02-07T09:53:28.402Z,6.80
2019-02-07T09:56:19.484Z,6.60
2019-02-07T09:59:06.262Z,7.03
2019-02-07T10:01:54.429Z,7.13
2019-02-07T10:04:45.299Z,7.60
2019-02-07T10:07:31.746Z,7.63
2019-02-07T10:10:18.637Z,6.57
2019-02-07T10:13:15.600Z,6.63
2019-02-07T10:16:09.695Z,7.63
2019-02-07T10:19:03.617Z,7.47
2019-02-07T10:21:42.148Z,6.97
2019-02-07T10:24:32.873Z,7.37
2019-02-07T10:27:19.683Z,8.30
2019-02-07T10:30:07.455Z,7.53
2019-02-07T10:32:44.680Z,7.93
2019-02-07T10:35:38.848Z,7.97
2019-02-07T10:38:17.589Z,7.37
2019-02-07T10:41:04.007Z,7.20
2019-02-07T10:43:48.678Z,7.67
2019-02-07T10:46:35.255Z,7.00
2019-02-07T10:49:19.111Z,6.50
2019-02-07T10:52:01.833Z,7.03
2019-02-07T10:55:04.865Z,7.70
2019-02-07T10:57:52.385Z,7.53
2019-02-07T11:00:40.647Z,7.37
2019-02-07T11:03:27.827Z,6.47
2019-02-07T11:06:14.630Z,6.83
2019-02-07T11:09:02.470Z,6.43
2019-02-07T11:11:49.168Z,7.33
2019-02-07T11:14:36.084Z,6.87
2019-02-07T11:17:22.520Z,6.63
2019-02-07T11:20:10.624Z,7.93
2019-02-07T11:23:16.942Z,7.63
2019-02-07T11:26:08.076Z,6.93
2019-02-07T11:28:54.334Z,6.47
2019-02-07T11:31:52.884Z,6.67
2019-02-07T11:34:40.597Z,7.30
2019-02-07T11:37:31.451Z,7.40
2019-02-07T11:40:12.158Z,7.07
2019-02-07T11:42:58.262Z,7.00
2019-02-07T11:45:48.571Z,7.77
2019-02-07T11:48:35.055Z,7.20
2019-02-07T11:51:26.580Z,7.27
2019-02-07T11:54:13.522Z,6.43
2019-02-07T11:57:16.526Z,7.57
2019-02-07T12:00:16.353Z,7.57
2019-02-07T12:03:22.921Z,7.87
2019-02-07T12:06:19.844Z,7.40
2019-02-07T12:09:09.495Z,6.57
2019-02-07T12:11:57.339Z,6.40
2019-02-07T12:14:47.905Z,7.93
2019-02-07T12:17:41.999Z,7.57
2019-02-07T12:20:29.448Z,7.67
2019-02-07T12:23:16.086Z,7.80
2019-02-07T12:25:56.090Z,7.43
2019-02-07T12:28:50.857Z,7.37
2019-02-07T12:31:37.363Z,7.37
2019-02-07T12:34:25.656Z,7.03
2019-02-07T12:37:13.502Z,7.03
2019-02-07T12:39:53.847Z,7.33
2019-02-07T12:42:45.061Z,7.23
2019-02-07T12:45:27.528Z,6.23
2019-02-07T12:48:15.500Z,6.80
2019-02-07T12:51:01.810Z,6.60
2019-02-07T12:54:01.193Z,6.80
2019-02-07T12:56:41.870Z,5.37
2019-02-07T12:59:42.050Z,6.60
2019-02-07T13:02:48.264Z,6.10
2019-02-07T13:05:35.476Z,5.17
2019-02-07T13:08:41.969Z,6.03
2019-02-07T13:11:48.699Z,4.97
2019-02-07T13:14:45.663Z,5.47
2019-02-07T13:17:40.387Z,5.17
2019-02-07T13:20:27.417Z,4.80
2019-02-07T13:23:15.266Z,5.07
2019-02-07T13:25:53.846Z,4.33
2019-02-07T13:28:31.618Z,4.77
2019-02-07T13:31:18.521Z,4.60
2019-02-07T13:34:06.380Z,4.70
2019-02-07T13:36:57.185Z,4.53
2019-02-07T13:39:53.244Z,4.87
2019-02-07T13:42:46.282Z,5.00
2019-02-07T13:45:47.577Z,4.20
2019-02-07T13:48:28.243Z,4.23
2019-02-07T13:51:14.607Z,4.03
2019-02-07T13:53:52.232Z,3.83
2019-02-07T13:56:33.976Z,4.00
2019-02-07T13:59:40.233Z,3.30
2019-02-07T14:02:28.095Z,3.47
2019-02-07T14:05:08.023Z,2.40
2019-02-07T14:08:01.623Z,2.63
2019-02-07T14:10:44.437Z,1.73
2019-02-07T14:13:35.521Z,2.13
2019-02-07T14:16:33.311Z,1.40
2019-02-07T14:19:10.397Z,2.00
2019-02-07T14:21:53.500Z,2.23
2019-02-07T14:24:32.144Z,2.20
2019-02-07T14:27:14.332Z,1.80
2019-02-07T14:29:53.660Z,1.40
2019-02-07T14:32:38.837Z,2.40
2019-02-07T14:35:26.724Z,1.70
2019-02-07T14:38:09.726Z,2.10
2019-02-07T14:41:00.391Z,1.23
2019-02-07T14:43:45.047Z,2.17
2019-02-07T14:46:38.879Z,2.37
2019-02-07T14:49:07.673Z,1.50
2019-02-07T14:51:36.570Z,1.80
2019-02-07T14:54:05.475Z,2.20
2019-02-07T14:56:34.364Z,1.57
2019-02-07T14:59:03.237Z,1.90
2019-02-07T15:01:32.054Z,1.67
2019-02-07T15:04:00.887Z,2.00
2019-02-07T15:06:29.679Z,1.60
2019-02-07T15:08:58.504Z,1.80
2019-02-07T15:11:27.537Z,1.57
2019-02-07T15:13:56.328Z,1.70
2019-02-07T15:16:25.158Z,2.13
2019-02-07T15:18:53.937Z,1.80
2019-02-07T15:21:22.751Z,1.47
2019-02-07T15:23:51.535Z,1.43
2019-02-07T15:26:20.300Z,2.10
2019-02-07T15:28:49.182Z,1.43
2019-02-07T15:31:18.017Z,2.10
2019-02-07T15:33:46.925Z,1.57
2019-02-07T15:36:15.754Z,1.83
2019-02-07T15:38:44.599Z,2.47
2019-02-07T15:41:13.426Z,2.30
2019-02-07T15:43:42.521Z,1.70
2019-02-07T15:46:11.765Z,1.73
2019-02-07T15:48:40.467Z,1.70
2019-02-07T15:51:09.515Z,1.70
2019-02-07T15:53:38.293Z,1.73
2019-02-07T15:56:07.143Z,2.00
2019-02-07T15:58:51.802Z,2.33
2019-02-07T16:01:25.904Z,1.53
2019-02-07T16:04:02.625Z,1.57
2019-02-07T16:06:31.430Z,1.93
2019-02-07T16:09:00.656Z,1.60
2019-02-07T16:11:29.441Z,1.50
2019-02-07T16:13:58.313Z,2.40
2019-02-07T16:16:27.118Z,2.10
2019-02-07T16:18:55.945Z,2.30
2019-02-07T16:21:24.756Z,2.00
2019-02-07T16:23:54.035Z,2.20
2019-02-07T16:26:22.842Z,1.87
2019-02-07T16:28:51.571Z,1.47
2019-02-07T16:31:20.385Z,1.63
2019-02-07T16:33:49.186Z,1.87
2019-02-07T16:36:18.025Z,2.00
2019-02-07T16:38:47.279Z,1.73
2019-02-07T16:41:16.100Z,1.80
2019-02-07T16:43:44.931Z,2.00
2019-02-07T16:46:13.752Z,1.67
2019-02-07T16:48:42.632Z,2.33
2019-02-07T16:51:11.484Z,1.60
2019-02-07T16:53:40.273Z,1.63
2019-02-07T16:56:09.084Z,1.50
2019-02-07T16:58:37.819Z,1.80
2019-02-07T17:01:07.084Z,1.73
2019-02-07T17:03:35.937Z,2.33
2019-02-07T17:06:05.263Z,1.70
2019-02-07T17:08:34.144Z,2.17
2019-02-07T17:11:03.005Z,2.23
2019-02-07T17:13:31.820Z,1.70
2019-02-07T17:16:00.968Z,2.30
2019-02-07T17:18:29.890Z,2.20
2019-02-07T17:20:59.075Z,2.33
2019-02-07T17:23:29.456Z,2.23
2019-02-07T17:25:58.549Z,1.83
2019-02-07T17:28:27.399Z,2.20
2019-02-07T17:30:56.268Z,1.67
2019-02-07T17:33:25.080Z,2.67
2019-02-07T17:35:54.362Z,1.70
2019-02-07T17:38:23.140Z,1.97
2019-02-07T17:40:52.366Z,1.80
2019-02-07T17:43:21.207Z,2.40
2019-02-07T17:45:50.170Z,2.20
2019-02-07T17:48:19.019Z,1.97
2019-02-07T17:50:47.839Z,2.13
2019-02-07T17:53:17.230Z,2.00
2019-02-07T17:55:49.014Z,1.27
2019-02-07T17:58:18.671Z,2.33
2019-02-07T18:00:57.438Z,2.10
2019-02-07T18:03:28.285Z,1.80
2019-02-07T18:05:56.764Z,2.07
2019-02-07T18:08:25.716Z,1.93
2019-02-07T18:10:54.636Z,1.10
2019-02-07T18:13:26.467Z,1.63
2019-02-07T18:15:57.375Z,1.57
2019-02-07T18:18:25.703Z,1.73
2019-02-07T18:20:57.062Z,1.67
2019-02-07T18:23:28.145Z,1.70
2019-02-07T18:25:57.050Z,1.57
2019-02-07T18:28:27.142Z,1.60
2019-02-07T18:30:55.993Z,1.43
2019-02-07T18:33:24.863Z,1.60
2019-02-07T18:35:53.694Z,1.80
2019-02-07T18:38:22.563Z,1.37
2019-02-07T18:40:52.755Z,1.13
2019-02-07T18:43:21.534Z,1.90
2019-02-07T18:45:50.531Z,1.50
2019-02-07T18:48:19.444Z,1.67
2019-02-07T18:50:50.427Z,1.37
2019-02-07T18:53:18.879Z,1.43
2019-02-07T18:55:47.772Z,1.50
2019-02-07T18:58:16.557Z,1.17
2019-02-07T19:00:46.582Z,1.70
2019-02-07T19:03:15.404Z,1.63
2019-02-07T19:05:44.246Z,2.40
2019-02-07T19:08:13.241Z,1.80
2019-02-07T19:10:42.472Z,1.57
2019-02-07T19:13:11.350Z,1.50
2019-02-07T19:15:41.587Z,1.50
2019-02-07T19:18:10.556Z,1.50
2019-02-07T19:20:40.124Z,1.53
2019-02-07T19:23:09.006Z,1.53
2019-02-07T19:25:38.146Z,2.10
2019-02-07T19:28:07.501Z,1.70
2019-02-07T19:30:37.008Z,1.70
2019-02-07T19:33:05.966Z,1.47
2019-02-07T19:35:35.791Z,1.57
2019-02-07T19:38:04.946Z,1.73
2019-02-07T19:40:33.750Z,1.77
2019-02-07T19:43:02.686Z,1.50
2019-02-07T19:45:31.551Z,1.50
2019-02-07T19:48:02.257Z,1.53
2019-02-07T19:50:31.153Z,1.90
2019-02-07T19:53:02.504Z,2.10
2019-02-07T19:55:32.752Z,1.50
2019-02-07T19:58:07.564Z,1.10
2019-02-07T20:00:39.366Z,1.60
2019-02-07T20:03:07.332Z,1.70
2019-02-07T20:05:36.460Z,1.57
2019-02-07T20:08:05.591Z,1.60
2019-02-07T20:10:35.206Z,1.67
2019-02-07T20:13:06.011Z,1.67
2019-02-07T20:15:36.538Z,2.17
2019-02-07T20:18:06.387Z,2.63
2019-02-07T20:20:35.375Z,1.50
2019-02-07T20:23:04.839Z,2.43
2019-02-07T20:25:34.532Z,2.13
2019-02-07T20:28:03.508Z,2.83
2019-02-07T20:30:33.549Z,1.67
2019-02-07T20:33:02.377Z,1.93
2019-02-07T20:35:31.249Z,3.10
2019-02-07T20:38:00.403Z,1.87
2019-02-07T20:40:29.260Z,2.37
2019-02-07T20:42:58.557Z,2.07
2019-02-07T20:45:27.471Z,2.13
2019-02-07T20:47:56.477Z,2.00
2019-02-07T20:50:25.707Z,1.80
2019-02-07T20:52:57.543Z,2.70
2019-02-07T20:55:26.280Z,2.40
2019-02-07T20:57:55.429Z,2.00
2019-02-07T21:00:26.030Z,3.13
2019-02-07T21:02:56.132Z,2.80
2019-02-07T21:05:25.415Z,2.13
2019-02-07T21:07:54.262Z,2.67
2019-02-07T21:10:23.601Z,3.50
2019-02-07T21:12:52.881Z,3.00
2019-02-07T21:15:22.094Z,2.23
2019-02-07T21:17:50.945Z,2.23
2019-02-07T21:20:20.860Z,2.13
2019-02-07T21:22:50.429Z,2.23
2019-02-07T21:25:20.394Z,1.33
2019-02-07T21:27:49.230Z,1.27
2019-02-07T21:30:22.386Z,1.53
2019-02-07T21:32:51.777Z,1.60
2019-02-07T21:35:20.883Z,1.33
2019-02-07T21:37:49.698Z,1.40
2019-02-07T21:40:19.838Z,1.20
2019-02-07T21:42:48.773Z,1.10
2019-02-07T21:45:17.875Z,1.10
2019-02-07T21:47:46.699Z,1.30
2019-02-07T21:50:16.547Z,1.13
2019-02-07T21:52:45.393Z,1.13
2019-02-07T21:55:15.248Z,1.17
2019-02-07T21:57:44.048Z,1.40
2019-02-07T22:00:14.295Z,1.20
2019-02-07T22:02:46.028Z,1.20
2019-02-07T22:05:16.040Z,1.60
2019-02-07T22:07:44.927Z,1.07
2019-02-07T22:10:13.928Z,1.43
2019-02-07T22:12:42.845Z,1.33
2019-02-07T22:15:13.207Z,1.60
2019-02-07T22:17:42.024Z,1.17
2019-02-07T22:20:15.149Z,1.30
2019-02-07T22:22:49.118Z,1.50
2019-02-07T22:25:24.014Z,1.37
2019-02-07T22:27:48.417Z,1.53
2019-02-07T22:30:18.987Z,1.40
2019-02-07T22:32:48.298Z,1.70
2019-02-07T22:35:17.644Z,1.60
2019-02-07T22:37:46.489Z,1.40
2019-02-07T22:40:16.539Z,1.40
2019-02-07T22:42:47.942Z,1.60
2019-02-07T22:45:21.385Z,1.73
2019-02-07T22:47:50.194Z,1.87
2019-02-07T22:50:19.928Z,1.37
2019-02-07T22:52:48.729Z,1.40
2019-02-07T22:55:17.737Z,1.60
2019-02-07T22:57:46.590Z,1.00
2019-02-07T23:00:34.952Z,1.23
2019-02-07T23:03:05.133Z,1.27
2019-02-07T23:05:33.855Z,2.03
2019-02-07T23:08:02.669Z,1.43
2019-02-07T23:10:31.495Z,1.73
2019-02-07T23:13:00.725Z,1.60
2019-02-07T23:15:29.707Z,1.10
2019-02-07T23:17:58.460Z,1.67
2019-02-07T23:20:27.209Z,1.97
2019-02-07T23:22:56.001Z,1.67
2019-02-07T23:25:24.838Z,1.57
2019-02-07T23:27:53.633Z,1.90
2019-02-07T23:30:22.415Z,1.43
2019-02-07T23:32:51.215Z,1.47
2019-02-07T23:35:19.993Z,1.13
2019-02-07T23:37:48.821Z,1.63
2019-02-07T23:40:17.737Z,1.53
2019-02-07T23:42:46.627Z,1.37
2019-02-07T23:45:16.776Z,0.80
2019-02-07T23:47:45.579Z,1.50
2019-02-07T23:50:14.373Z,1.77
2019-02-07T23:52:43.181Z,1.13
2019-02-07T23:55:12.189Z,1.47
2019-02-07T23:57:40.913Z,1.40
